createdAt,value
2019-04-21T00:00:33.375Z,32.40
2019-04-21T00:01:39.863Z,32.30
2019-04-21T00:02:44.111Z,33.01
2019-04-21T00:03:53.244Z,32.82
2019-04-21T00:05:10.750Z,33.03
2019-04-21T00:06:15.590Z,33.13
2019-04-21T00:07:25.060Z,32.93
2019-04-21T00:09:42.316Z,33.13
2019-04-21T00:10:48.321Z,33.64
2019-04-21T00:11:57.291Z,33.64
2019-04-21T00:12:53.508Z,33.55
2019-04-21T00:13:56.296Z,32.23
2019-04-21T00:15:02.175Z,32.33
2019-04-21T00:16:03.411Z,33.15
2019-04-21T00:17:09.677Z,32.53
2019-04-21T00:18:12.318Z,32.94
2019-04-21T00:19:21.116Z,32.24
2019-04-21T00:20:30.891Z,32.94
2019-04-21T00:21:36.536Z,32.74
2019-04-21T00:22:46.697Z,33.04
2019-04-21T00:23:56.182Z,32.94
2019-04-21T00:25:04.358Z,32.33
2019-04-21T00:26:03.941Z,32.34
2019-04-21T00:27:15.643Z,33.37
2019-04-21T00:28:33.169Z,33.37
2019-04-21T00:29:36.709Z,33.16
2019-04-21T00:30:43.071Z,32.96
2019-04-21T00:31:41.965Z,32.55
2019-04-21T00:32:44.989Z,32.96
2019-04-21T00:33:41.619Z,33.16
2019-04-21T00:34:52.240Z,33.16
2019-04-21T00:35:59.315Z,32.75
2019-04-21T00:37:09.133Z,32.96
2019-04-21T00:38:25.240Z,32.75
2019-04-21T00:39:37.002Z,33.06
2019-04-21T00:40:41.751Z,33.57
2019-04-21T00:41:43.672Z,32.34
2019-04-21T00:42:49.941Z,33.26
2019-04-21T00:43:49.489Z,33.55
2019-04-21T00:44:59.226Z,33.76
2019-04-21T00:46:02.208Z,33.76
2019-04-21T00:47:08.527Z,33.86
2019-04-21T00:48:23.729Z,33.76
2019-04-21T00:49:23.311Z,33.55
2019-04-21T00:50:40.777Z,33.55
2019-04-21T00:51:55.416Z,33.76
2019-04-21T00:54:23.146Z,33.35
2019-04-21T00:55:18.788Z,33.15
2019-04-21T00:56:08.692Z,33.55
2019-04-21T00:57:18.064Z,33.04
2019-04-21T00:58:24.943Z,33.55
2019-04-21T00:59:33.574Z,33.55
2019-04-21T01:00:32.552Z,33.76
2019-04-21T01:01:37.903Z,33.86
2019-04-21T01:02:51.175Z,33.25
2019-04-21T01:03:58.272Z,33.35
2019-04-21T01:05:06.161Z,33.96
2019-04-21T01:06:03.372Z,32.94
2019-04-21T01:07:12.516Z,32.94
2019-04-21T01:08:21.976Z,33.55
2019-04-21T01:09:26.594Z,33.65
2019-04-21T01:10:24.253Z,33.55
2019-04-21T01:11:40.222Z,33.57
2019-04-21T01:12:41.932Z,33.35
2019-04-21T01:13:54.668Z,33.45
2019-04-21T01:15:03.869Z,33.67
2019-04-21T01:16:10.151Z,33.37
2019-04-21T01:17:14.622Z,33.67
2019-04-21T01:18:16.832Z,33.06
2019-04-21T01:19:20.883Z,33.16
2019-04-21T01:20:16.821Z,33.16
2019-04-21T01:21:14.849Z,33.26
2019-04-21T01:22:15.316Z,33.37
2019-04-21T01:23:16.745Z,33.28
2019-04-21T01:24:26.177Z,33.99
2019-04-21T01:25:33.059Z,33.59
2019-04-21T01:26:42.597Z,33.48
2019-04-21T01:27:55.143Z,33.18
2019-04-21T01:28:59.824Z,33.69
2019-04-21T01:30:12.861Z,33.48
2019-04-21T01:31:15.250Z,33.48
2019-04-21T01:32:25.526Z,33.48
2019-04-21T01:33:34.946Z,33.48
2019-04-21T01:34:38.933Z,34.09
2019-04-21T01:35:44.081Z,34.08
2019-04-21T01:36:47.454Z,33.79
2019-04-21T01:38:03.143Z,33.77
2019-04-21T01:39:05.339Z,33.79
2019-04-21T01:40:16.872Z,33.79
2019-04-21T01:41:21.068Z,33.99
2019-04-21T01:42:21.364Z,33.79
2019-04-21T01:43:27.603Z,33.69
2019-04-21T01:44:39.130Z,33.99
2019-04-21T01:45:45.979Z,33.79
2019-04-21T01:46:48.639Z,33.89
2019-04-21T01:47:59.685Z,33.69
2019-04-21T01:48:57.016Z,33.89
2019-04-21T01:49:59.535Z,33.79
2019-04-21T01:51:16.074Z,33.70
2019-04-21T01:52:34.507Z,33.60
2019-04-21T01:53:30.798Z,33.91
2019-04-21T01:54:40.440Z,34.11
2019-04-21T01:55:46.723Z,34.31
2019-04-21T01:56:51.283Z,34.22
2019-04-21T01:57:56.665Z,34.22
2019-04-21T01:58:54.031Z,34.42
2019-04-21T02:00:02.631Z,34.52
2019-04-21T02:01:10.229Z,34.62
2019-04-21T02:02:26.691Z,34.31
2019-04-21T02:03:48.350Z,34.62
2019-04-21T02:04:44.276Z,34.33
2019-04-21T02:05:46.692Z,34.42
2019-04-21T02:06:50.413Z,34.62
2019-04-21T02:07:55.180Z,34.44
2019-04-21T02:08:57.955Z,34.44
2019-04-21T02:10:11.105Z,34.74
2019-04-21T02:11:20.300Z,34.74
2019-04-21T02:12:26.668Z,34.44
2019-04-21T02:13:27.685Z,34.33
2019-04-21T02:14:45.685Z,33.82
2019-04-21T02:15:48.866Z,34.14
2019-04-21T02:16:56.675Z,34.35
2019-04-21T02:17:59.217Z,34.23
2019-04-21T02:18:58.219Z,33.94
2019-04-21T02:20:02.765Z,34.55
2019-04-21T02:21:03.951Z,34.14
2019-04-21T02:22:33.844Z,34.14
2019-04-21T02:24:42.090Z,34.55
2019-04-21T02:25:44.648Z,34.86
2019-04-21T02:26:47.725Z,34.45
2019-04-21T02:27:59.505Z,34.35
2019-04-21T02:29:10.143Z,34.45
2019-04-21T02:30:24.238Z,34.86
2019-04-21T02:31:28.955Z,34.96
2019-04-21T02:32:42.112Z,35.06
2019-04-21T02:34:49.135Z,34.47
2019-04-21T02:37:17.175Z,35.08
2019-04-21T02:39:16.676Z,35.28
2019-04-21T02:41:23.088Z,35.28
2019-04-21T02:42:27.186Z,34.99
2019-04-21T02:43:38.412Z,34.98
2019-04-21T02:45:51.243Z,34.98
2019-04-21T02:46:50.259Z,34.77
2019-04-21T02:48:04.116Z,35.10
2019-04-21T02:50:22.411Z,34.79
2019-04-21T02:51:28.202Z,35.61
2019-04-21T02:53:50.722Z,35.81
2019-04-21T02:55:43.604Z,35.71
2019-04-21T02:58:06.302Z,35.91
2019-04-21T02:59:09.243Z,35.30
2019-04-21T03:00:13.633Z,35.61
2019-04-21T03:02:35.158Z,35.31
2019-04-21T03:05:47.141Z,35.71
2019-04-21T03:07:09.722Z,35.63
2019-04-21T03:09:09.047Z,35.63
2019-04-21T03:10:12.561Z,35.63
2019-04-21T03:11:14.612Z,35.31
2019-04-21T03:12:20.599Z,35.31
2019-04-21T03:14:58.106Z,35.42
2019-04-21T03:16:52.733Z,35.54
2019-04-21T03:18:00.335Z,35.72
2019-04-21T03:20:10.543Z,35.74
2019-04-21T03:22:20.061Z,36.05
2019-04-21T03:23:30.116Z,35.64
2019-04-21T03:25:20.430Z,35.95
2019-04-21T03:29:09.020Z,35.66
2019-04-21T03:31:42.387Z,35.86
2019-04-21T03:32:55.335Z,36.27
2019-04-21T03:33:59.554Z,36.68
2019-04-21T03:36:56.900Z,36.17
2019-04-21T03:37:59.613Z,36.17
2019-04-21T03:38:57.240Z,36.19
2019-04-21T03:41:16.164Z,36.08
2019-04-21T03:44:32.713Z,36.90
2019-04-21T03:45:38.564Z,36.90
2019-04-21T03:46:52.565Z,36.60
2019-04-21T03:47:55.209Z,36.51
2019-04-21T03:49:02.363Z,36.61
2019-04-21T03:50:22.337Z,37.43
2019-04-21T03:51:15.827Z,36.72
2019-04-21T03:53:30.142Z,37.43
2019-04-21T03:54:37.187Z,37.43
2019-04-21T03:57:08.824Z,37.13
2019-04-21T03:58:05.580Z,37.43
2019-04-21T03:59:01.929Z,37.54
2019-04-21T04:00:12.310Z,37.13
2019-04-21T04:02:29.899Z,36.82
2019-04-21T04:05:49.545Z,37.02
2019-04-21T04:06:45.013Z,36.92
2019-04-21T04:08:59.334Z,37.43
2019-04-21T04:10:13.585Z,37.66
2019-04-21T04:11:29.486Z,37.24
2019-04-21T04:12:12.439Z,36.94
2019-04-21T04:13:33.556Z,37.15
2019-04-21T04:14:34.393Z,37.15
2019-04-21T04:15:39.460Z,36.94
2019-04-21T04:16:50.353Z,36.94
2019-04-21T04:17:42.089Z,37.24
2019-04-21T04:18:52.315Z,37.45
2019-04-21T04:19:53.581Z,37.24
2019-04-21T04:21:12.674Z,37.06
2019-04-21T04:22:15.017Z,37.26
2019-04-21T04:23:41.553Z,36.75
2019-04-21T04:25:27.349Z,37.04
2019-04-21T04:26:39.485Z,37.98
2019-04-21T04:28:57.309Z,37.57
2019-04-21T04:29:59.029Z,37.57
2019-04-21T04:31:05.702Z,37.47
2019-04-21T04:32:03.347Z,37.47
2019-04-21T04:33:22.819Z,37.68
2019-04-21T04:35:34.079Z,37.68
2019-04-21T04:37:46.196Z,37.77
2019-04-21T04:39:02.613Z,37.47
2019-04-21T04:41:06.229Z,37.59
2019-04-21T04:43:18.677Z,37.59
2019-04-21T04:45:30.671Z,37.68
2019-04-21T04:46:47.561Z,37.26
2019-04-21T04:47:47.055Z,37.26
2019-04-21T04:51:02.046Z,37.98
2019-04-21T04:52:19.195Z,38.09
2019-04-21T04:54:33.798Z,38.09
2019-04-21T04:55:26.101Z,37.77
2019-04-21T05:00:03.480Z,37.88
2019-04-21T05:02:20.079Z,37.57
2019-04-21T05:03:11.766Z,37.26
2019-04-21T05:04:25.409Z,37.68
2019-04-21T05:05:28.296Z,37.47
2019-04-21T05:07:42.839Z,37.88
2019-04-21T05:10:07.326Z,37.88
2019-04-21T05:11:07.706Z,37.98
2019-04-21T05:12:16.069Z,37.37
2019-04-21T05:13:06.584Z,37.76
2019-04-21T05:14:18.323Z,37.76
2019-04-21T05:15:16.151Z,37.96
2019-04-21T05:16:40.974Z,37.96
2019-04-21T05:18:52.860Z,37.24
2019-04-21T05:20:03.664Z,37.55
2019-04-21T05:21:10.580Z,38.17
2019-04-21T05:22:05.268Z,37.55
2019-04-21T05:22:59.766Z,37.55
2019-04-21T05:24:10.822Z,37.66
2019-04-21T05:25:11.661Z,37.55
2019-04-21T05:26:14.929Z,37.55
2019-04-21T05:27:20.356Z,37.55
2019-04-21T05:28:24.435Z,38.28
2019-04-21T05:29:38.892Z,38.46
2019-04-21T05:30:48.957Z,38.79
2019-04-21T05:31:56.935Z,38.89
2019-04-21T05:33:13.514Z,38.87
2019-04-21T05:34:10.709Z,38.87
2019-04-21T05:35:17.975Z,38.35
2019-04-21T05:36:18.766Z,38.77
2019-04-21T05:37:24.449Z,38.97
2019-04-21T05:38:27.716Z,38.97
2019-04-21T05:39:35.552Z,38.56
2019-04-21T05:40:38.833Z,39.06
2019-04-21T05:41:42.021Z,38.56
2019-04-21T05:42:55.507Z,38.65
2019-04-21T05:44:06.852Z,38.03
2019-04-21T05:46:20.605Z,38.13
2019-04-21T05:48:35.095Z,38.01
2019-04-21T05:49:37.003Z,38.01
2019-04-21T05:50:38.052Z,38.42
2019-04-21T05:51:46.565Z,37.50
2019-04-21T05:52:51.659Z,37.48
2019-04-21T05:54:07.274Z,37.38
2019-04-21T05:55:11.006Z,37.48
2019-04-21T05:56:16.030Z,37.48
2019-04-21T05:57:22.007Z,37.47
2019-04-21T05:58:34.756Z,37.26
2019-04-21T05:59:41.704Z,37.47
2019-04-21T06:01:03.878Z,37.98
2019-04-21T06:01:55.606Z,37.37
2019-04-21T06:02:57.688Z,37.65
2019-04-21T06:04:03.673Z,37.14
2019-04-21T06:05:20.899Z,37.65
2019-04-21T06:06:20.673Z,37.86
2019-04-21T06:07:25.568Z,37.65
2019-04-21T06:08:34.270Z,37.55
2019-04-21T06:09:34.946Z,37.74
2019-04-21T06:10:47.281Z,37.33
2019-04-21T06:11:51.330Z,37.74
2019-04-21T06:13:01.872Z,37.63
2019-04-21T06:14:25.100Z,37.63
2019-04-21T06:15:12.247Z,37.33
2019-04-21T06:16:13.941Z,37.82
2019-04-21T06:17:29.867Z,37.82
2019-04-21T06:18:35.392Z,37.62
2019-04-21T06:19:43.747Z,37.29
2019-04-21T06:21:44.744Z,37.40
2019-04-21T06:22:56.647Z,37.70
2019-04-21T06:24:03.846Z,37.70
2019-04-21T06:25:39.445Z,37.48
2019-04-21T06:26:44.891Z,37.48
2019-04-21T06:28:33.735Z,36.66
2019-04-21T06:29:42.080Z,37.57
2019-04-21T06:30:48.643Z,37.57
2019-04-21T06:32:14.207Z,37.57
2019-04-21T06:33:01.764Z,37.57
2019-04-21T06:33:58.550Z,37.57
2019-04-21T06:35:13.349Z,36.94
2019-04-21T06:36:34.602Z,36.63
2019-04-21T06:38:37.986Z,36.94
2019-04-21T06:39:39.839Z,37.12
2019-04-21T06:40:46.116Z,36.82
2019-04-21T06:41:47.607Z,36.92
2019-04-21T06:43:08.155Z,36.61
2019-04-21T06:44:01.360Z,36.60
2019-04-21T06:45:06.202Z,36.40
2019-04-21T06:46:21.087Z,36.70
2019-04-21T06:47:27.244Z,36.90
2019-04-21T06:48:30.520Z,36.38
2019-04-21T06:49:31.405Z,37.19
2019-04-21T06:50:41.536Z,36.77
2019-04-21T06:51:43.252Z,36.77
2019-04-21T06:56:15.168Z,36.02
2019-04-21T06:57:16.789Z,35.82
2019-04-21T06:58:22.838Z,35.92
2019-04-21T06:59:30.164Z,36.21
2019-04-21T07:00:34.468Z,36.21
2019-04-21T07:01:55.281Z,35.39
2019-04-21T07:02:54.930Z,35.38
2019-04-21T07:04:02.985Z,35.36
2019-04-21T07:05:20.338Z,35.56
2019-04-21T07:06:08.055Z,35.36
2019-04-21T07:07:12.945Z,35.05
2019-04-21T07:08:31.323Z,35.02
2019-04-21T07:09:26.945Z,35.14
2019-04-21T07:10:35.046Z,35.02
2019-04-21T07:11:37.810Z,35.02
2019-04-21T07:12:46.144Z,35.21
2019-04-21T07:14:01.697Z,35.41
2019-04-21T07:15:01.974Z,35.19
2019-04-21T07:16:13.835Z,35.19
2019-04-21T07:17:20.116Z,35.29
2019-04-21T07:18:19.472Z,35.58
2019-04-21T07:19:30.782Z,35.16
2019-04-21T07:20:31.223Z,34.45
2019-04-21T07:21:38.481Z,35.04
2019-04-21T07:22:51.168Z,34.64
2019-04-21T07:23:54.361Z,34.22
2019-04-21T07:24:58.977Z,34.42
2019-04-21T07:26:05.686Z,33.89
2019-04-21T07:27:08.856Z,33.69
2019-04-21T07:28:21.998Z,34.18
2019-04-21T07:29:32.604Z,34.38
2019-04-21T07:30:31.419Z,34.06
2019-04-21T07:31:41.141Z,33.86
2019-04-21T07:32:45.711Z,33.15
2019-04-21T07:35:03.678Z,33.53
2019-04-21T07:36:03.973Z,33.22
2019-04-21T07:37:06.435Z,32.60
2019-04-21T07:38:12.056Z,32.70
2019-04-21T07:39:16.643Z,32.60
2019-04-21T07:40:18.996Z,32.69
2019-04-21T07:41:24.893Z,32.78
2019-04-21T07:42:32.599Z,32.78
2019-04-21T07:43:39.509Z,32.78
2019-04-21T07:44:46.942Z,32.96
2019-04-21T07:45:52.783Z,32.96
2019-04-21T07:46:58.455Z,32.66
2019-04-21T07:48:09.584Z,32.84
2019-04-21T07:49:16.733Z,32.04
2019-04-21T07:50:26.998Z,32.84
2019-04-21T07:51:31.641Z,32.32
2019-04-21T07:52:39.563Z,32.32
2019-04-21T07:53:51.521Z,32.73
2019-04-21T07:54:57.435Z,32.23
2019-04-21T07:55:37.394Z,32.61
2019-04-21T07:56:46.293Z,32.81
2019-04-21T07:58:14.959Z,31.91
2019-04-21T07:59:12.725Z,32.20
2019-04-21T08:00:36.869Z,32.79
2019-04-21T08:01:32.195Z,31.27
2019-04-21T08:02:47.172Z,32.98
2019-04-21T08:03:38.701Z,33.08
2019-04-21T08:04:52.807Z,31.66
2019-04-21T08:05:54.737Z,31.96
2019-04-21T08:06:58.203Z,32.06
2019-04-21T08:07:59.591Z,32.76
2019-04-21T08:09:09.029Z,32.95
2019-04-21T08:10:15.950Z,31.85
2019-04-21T08:11:22.423Z,32.23
2019-04-21T08:12:24.266Z,32.53
2019-04-21T08:14:45.159Z,32.21
2019-04-21T08:15:53.000Z,31.31
2019-04-21T08:16:57.215Z,31.51
2019-04-21T08:18:02.635Z,31.90
2019-04-21T08:19:09.769Z,32.20
2019-04-21T08:20:15.622Z,31.90
2019-04-21T08:21:24.697Z,31.38
2019-04-21T08:22:32.180Z,31.88
2019-04-21T08:23:31.851Z,31.88
2019-04-21T08:24:46.480Z,31.79
2019-04-21T08:25:53.070Z,31.88
2019-04-21T08:27:00.212Z,31.87
2019-04-21T08:27:59.886Z,31.97
2019-04-21T08:29:15.900Z,30.87
2019-04-21T08:30:11.527Z,31.35
2019-04-21T08:31:27.843Z,31.67
2019-04-21T08:32:38.487Z,30.85
2019-04-21T08:33:38.354Z,30.55
2019-04-21T08:34:44.526Z,30.74
2019-04-21T08:36:52.824Z,30.82
2019-04-21T08:38:05.428Z,31.04
2019-04-21T08:39:06.553Z,30.93
2019-04-21T08:40:19.327Z,30.52
2019-04-21T08:41:21.334Z,31.02
2019-04-21T08:42:27.115Z,31.02
2019-04-21T08:43:43.104Z,30.71
2019-04-21T08:44:40.473Z,31.11
2019-04-21T08:45:51.252Z,30.81
2019-04-21T08:46:55.091Z,30.51
2019-04-21T08:48:02.922Z,29.90
2019-04-21T08:49:07.981Z,30.19
2019-04-21T08:50:08.003Z,30.29
2019-04-21T08:51:33.583Z,30.19
2019-04-21T08:52:44.384Z,30.19
2019-04-21T08:53:35.784Z,30.19
2019-04-21T08:54:36.153Z,30.08
2019-04-21T08:55:51.035Z,30.49
2019-04-21T08:56:54.250Z,30.29
2019-04-21T08:58:15.212Z,30.28
2019-04-21T08:59:12.799Z,30.58
2019-04-21T09:00:16.298Z,30.28
2019-04-21T09:01:18.036Z,30.08
2019-04-21T09:02:24.891Z,29.98
2019-04-21T09:03:30.128Z,29.78
2019-04-21T09:04:35.199Z,29.78
2019-04-21T09:05:46.632Z,30.07
2019-04-21T09:06:58.841Z,30.46
2019-04-21T09:08:13.677Z,30.35
2019-04-21T09:09:04.649Z,30.07
2019-04-21T09:10:04.292Z,30.05
2019-04-21T09:11:12.715Z,30.05
2019-04-21T09:12:14.982Z,29.95
2019-04-21T09:13:24.787Z,30.15
2019-04-21T09:14:33.853Z,29.64
2019-04-21T09:15:35.172Z,29.64
2019-04-21T09:16:40.797Z,29.24
2019-04-21T09:17:44.599Z,29.04
2019-04-21T09:18:52.907Z,29.34
2019-04-21T09:21:13.602Z,29.52
2019-04-21T09:22:17.893Z,29.52
2019-04-21T09:23:20.806Z,29.03
2019-04-21T09:24:29.426Z,29.03
2019-04-21T09:25:40.739Z,28.63
2019-04-21T09:26:41.351Z,29.01
2019-04-21T09:27:47.228Z,28.81
2019-04-21T09:28:48.130Z,28.81
2019-04-21T09:29:46.680Z,29.01
2019-04-21T09:30:55.972Z,29.11
2019-04-21T09:31:59.127Z,28.81
2019-04-21T09:33:02.064Z,28.70
2019-04-21T09:34:06.503Z,28.40
2019-04-21T09:35:11.189Z,28.40
2019-04-21T09:36:21.224Z,28.70
2019-04-21T09:37:35.310Z,29.00
2019-04-21T09:38:36.267Z,28.58
2019-04-21T09:39:40.988Z,28.28
2019-04-21T09:40:47.143Z,28.47
2019-04-21T09:41:51.187Z,28.57
2019-04-21T09:43:01.990Z,28.57
2019-04-21T09:44:01.691Z,28.38
2019-04-21T09:45:06.231Z,28.67
2019-04-21T09:46:08.650Z,28.47
2019-04-21T09:47:10.560Z,27.86
2019-04-21T09:48:18.614Z,28.16
2019-04-21T09:49:23.871Z,28.16
2019-04-21T09:50:26.535Z,27.86
2019-04-21T09:51:28.047Z,28.76
2019-04-21T09:52:37.539Z,27.56
2019-04-21T09:53:38.103Z,27.76
2019-04-21T09:54:52.067Z,28.44
2019-04-21T09:55:54.259Z,28.36
2019-04-21T09:57:00.262Z,28.44
2019-04-21T09:58:10.077Z,27.75
2019-04-21T09:59:13.263Z,28.25
2019-04-21T10:00:19.509Z,28.15
2019-04-21T10:01:28.817Z,28.25
2019-04-21T10:02:35.236Z,28.05
2019-04-21T10:03:41.242Z,28.03
2019-04-21T10:04:40.058Z,28.53
2019-04-21T10:05:41.606Z,27.14
2019-04-21T10:06:43.164Z,27.14
2019-04-21T10:07:44.257Z,27.34
2019-04-21T10:08:51.547Z,27.34
2019-04-21T10:09:52.408Z,27.54
2019-04-21T10:10:52.994Z,27.64
2019-04-21T10:11:54.760Z,27.83
2019-04-21T10:12:56.284Z,27.73
2019-04-21T10:13:56.772Z,27.24
2019-04-21T10:14:57.424Z,27.54
2019-04-21T10:16:00.803Z,27.12
2019-04-21T10:17:03.000Z,27.52
2019-04-21T10:18:03.490Z,26.53
2019-04-21T10:19:04.604Z,26.63
2019-04-21T10:20:05.229Z,26.73
2019-04-21T10:21:05.764Z,26.03
2019-04-21T10:22:06.215Z,25.85
2019-04-21T10:23:07.204Z,24.35
2019-04-21T10:24:08.277Z,24.35
2019-04-21T10:25:08.762Z,25.45
2019-04-21T10:26:10.402Z,25.65
2019-04-21T10:27:12.893Z,25.63
2019-04-21T10:28:15.015Z,25.73
2019-04-21T10:29:22.848Z,25.63
2019-04-21T10:30:22.502Z,25.54
2019-04-21T10:31:23.065Z,25.54
2019-04-21T10:32:25.277Z,25.62
2019-04-21T10:33:26.311Z,26.12
2019-04-21T10:34:27.330Z,25.62
2019-04-21T10:35:28.913Z,25.91
2019-04-21T10:36:29.422Z,25.71
2019-04-21T10:37:44.128Z,25.81
2019-04-21T10:38:42.639Z,25.70
2019-04-21T10:39:42.664Z,25.60
2019-04-21T10:40:43.463Z,25.79
2019-04-21T10:41:43.936Z,25.68
2019-04-21T10:42:45.694Z,25.68
2019-04-21T10:43:47.109Z,25.19
2019-04-21T10:44:47.585Z,24.69
2019-04-21T10:45:48.834Z,24.10
2019-04-21T10:46:51.835Z,23.50
2019-04-21T10:47:52.904Z,22.82
2019-04-21T10:48:54.816Z,23.22
2019-04-21T10:49:55.429Z,22.92
2019-04-21T10:50:57.019Z,23.41
2019-04-21T10:51:57.557Z,23.02
2019-04-21T10:52:58.708Z,23.11
2019-04-21T10:53:59.836Z,23.11
2019-04-21T10:55:20.737Z,22.82
2019-04-21T10:56:16.927Z,22.81
2019-04-21T10:57:14.531Z,22.71
2019-04-21T10:58:16.209Z,23.21
2019-04-21T10:59:16.798Z,23.70
2019-04-21T11:00:18.731Z,23.29
2019-04-21T11:01:19.414Z,23.49
2019-04-21T11:02:21.071Z,23.49
2019-04-21T11:03:22.851Z,23.19
2019-04-21T11:04:28.995Z,23.49
2019-04-21T11:05:30.544Z,23.18
2019-04-21T11:06:31.061Z,23.18
2019-04-21T11:07:35.821Z,23.27
2019-04-21T11:08:43.443Z,23.47
2019-04-21T11:09:44.639Z,23.96
2019-04-21T11:10:45.699Z,23.56
2019-04-21T11:11:48.266Z,23.27
2019-04-21T11:12:50.812Z,22.78
2019-04-21T11:13:52.525Z,23.07
2019-04-21T11:14:53.545Z,22.97
2019-04-21T11:15:55.178Z,22.88
2019-04-21T11:16:56.565Z,22.78
2019-04-21T11:17:58.191Z,23.27
2019-04-21T11:18:59.893Z,23.18
2019-04-21T11:20:01.111Z,22.97
2019-04-21T11:21:02.844Z,23.27
2019-04-21T11:22:03.547Z,23.47
2019-04-21T11:23:05.985Z,22.88
2019-04-21T11:24:06.488Z,22.78
2019-04-21T11:25:07.045Z,22.78
2019-04-21T11:26:07.493Z,23.07
2019-04-21T11:27:08.799Z,22.78
2019-04-21T11:28:09.323Z,22.48
2019-04-21T11:29:10.817Z,23.16
2019-04-21T11:30:11.761Z,23.16
2019-04-21T11:31:13.250Z,23.15
2019-04-21T11:32:14.757Z,23.15
2019-04-21T11:33:15.446Z,23.65
2019-04-21T11:34:16.019Z,23.14
2019-04-21T11:35:17.154Z,23.04
2019-04-21T11:36:17.652Z,23.24
2019-04-21T11:37:18.111Z,23.63
2019-04-21T11:38:23.270Z,22.93
2019-04-21T11:39:34.793Z,22.83
2019-04-21T11:40:31.858Z,22.53
2019-04-21T11:41:33.914Z,23.04
2019-04-21T11:42:35.584Z,21.75
2019-04-21T11:43:37.044Z,21.75
2019-04-21T11:44:37.617Z,22.05
2019-04-21T11:45:38.170Z,22.45
2019-04-21T11:46:38.618Z,22.84
2019-04-21T11:47:40.595Z,22.93
2019-04-21T11:48:42.121Z,22.83
2019-04-21T11:49:43.163Z,22.73
2019-04-21T11:50:43.662Z,23.22
2019-04-21T11:51:44.990Z,23.41
2019-04-21T11:52:45.493Z,22.93
2019-04-21T11:53:46.587Z,22.92
2019-04-21T11:54:47.072Z,22.92
2019-04-21T11:55:49.950Z,23.21
2019-04-21T11:56:52.849Z,22.91
2019-04-21T11:57:54.897Z,23.21
2019-04-21T11:58:57.777Z,23.29
2019-04-21T11:59:59.610Z,21.91
2019-04-21T12:01:00.313Z,21.51
2019-04-21T12:02:01.552Z,21.32
2019-04-21T12:03:02.045Z,21.61
2019-04-21T12:04:03.413Z,21.61
2019-04-21T12:05:03.944Z,22.01
2019-04-21T12:06:05.637Z,22.39
2019-04-21T12:07:07.186Z,21.50
2019-04-21T12:08:21.332Z,21.41
2019-04-21T12:09:14.710Z,21.70
2019-04-21T12:10:15.558Z,21.69
2019-04-21T12:11:17.635Z,21.59
2019-04-21T12:12:19.150Z,21.98
2019-04-21T12:13:20.388Z,21.69
2019-04-21T12:14:21.764Z,21.69
2019-04-21T12:15:22.944Z,21.78
2019-04-21T12:16:23.505Z,21.37
2019-04-21T12:17:23.933Z,21.19
2019-04-21T12:18:27.807Z,21.57
2019-04-21T12:19:30.444Z,21.47
2019-04-21T12:20:31.083Z,21.57
2019-04-21T12:21:48.194Z,21.28
2019-04-21T12:22:39.093Z,20.97
2019-04-21T12:23:40.539Z,20.97
2019-04-21T12:24:41.024Z,20.87
2019-04-21T12:25:41.565Z,20.28
2019-04-21T12:26:42.219Z,20.28
2019-04-21T12:27:43.873Z,20.48
2019-04-21T12:28:44.346Z,20.07
2019-04-21T12:29:46.104Z,20.27
2019-04-21T12:30:47.385Z,20.07
2019-04-21T12:31:48.009Z,20.26
2019-04-21T12:32:48.652Z,20.36
2019-04-21T12:33:49.800Z,20.36
2019-04-21T12:34:51.838Z,20.45
2019-04-21T12:35:53.802Z,20.15
2019-04-21T12:36:54.963Z,20.06
2019-04-21T12:37:56.410Z,20.54
2019-04-21T12:39:00.018Z,19.46
2019-04-21T12:40:03.500Z,19.75
2019-04-21T12:41:04.612Z,16.20
2019-04-21T12:42:05.171Z,14.75
2019-04-21T12:43:06.508Z,13.04
2019-04-21T12:44:07.085Z,12.32
2019-04-21T12:45:07.650Z,11.51
2019-04-21T12:46:08.161Z,10.82
2019-04-21T12:47:09.992Z,10.50
2019-04-21T12:48:10.593Z,10.29
2019-04-21T12:49:11.817Z,9.42
2019-04-21T12:50:12.865Z,9.03
2019-04-21T12:51:13.496Z,9.39
2019-04-21T12:52:14.002Z,8.54
2019-04-21T12:53:15.991Z,8.43
2019-04-21T12:54:17.905Z,8.80
2019-04-21T12:55:19.610Z,8.04
2019-04-21T12:56:20.312Z,8.31
2019-04-21T12:58:46.982Z,8.69
2019-04-21T12:59:50.830Z,8.66
2019-04-21T13:00:52.602Z,9.38
2019-04-21T13:01:54.927Z,10.47
2019-04-21T13:02:58.058Z,10.33
2019-04-21T13:04:00.060Z,10.56
2019-04-21T13:05:01.938Z,11.56
2019-04-21T13:06:03.492Z,13.62
2019-04-21T13:07:04.075Z,14.63
2019-04-21T13:08:07.157Z,14.57
2019-04-21T13:09:11.161Z,14.98
2019-04-21T13:10:16.224Z,15.69
2019-04-21T13:11:19.107Z,14.64
2019-04-21T13:12:22.773Z,14.84
2019-04-21T13:13:23.934Z,14.76
2019-04-21T13:14:26.143Z,16.05
2019-04-21T13:15:29.251Z,16.64
2019-04-21T13:16:31.653Z,16.66
2019-04-21T13:17:35.290Z,17.86
2019-04-21T13:18:37.847Z,18.06
2019-04-21T13:19:41.123Z,18.17
2019-04-21T13:20:44.529Z,19.26
2019-04-21T13:21:47.812Z,19.18
2019-04-21T13:22:50.362Z,18.60
2019-04-21T13:23:52.754Z,18.41
2019-04-21T13:24:55.595Z,18.91
2019-04-21T13:25:57.671Z,19.32
2019-04-21T13:27:00.219Z,19.61
2019-04-21T13:28:02.916Z,18.44
2019-04-21T13:29:03.393Z,19.03
2019-04-21T13:30:04.302Z,19.23
2019-04-21T13:31:04.858Z,17.25
2019-04-21T13:32:06.847Z,17.25
2019-04-21T13:33:09.164Z,18.54
2019-04-21T13:34:10.493Z,18.94
2019-04-21T13:35:11.110Z,18.26
2019-04-21T13:36:11.846Z,18.46
2019-04-21T13:37:12.376Z,18.06
2019-04-21T13:38:24.263Z,18.75
2019-04-21T13:39:50.291Z,18.96
2019-04-21T13:40:45.027Z,19.15
2019-04-21T13:41:42.864Z,18.37
2019-04-21T13:42:44.453Z,18.07
2019-04-21T13:43:45.499Z,19.06
2019-04-21T13:44:47.156Z,18.37
2019-04-21T13:45:47.848Z,16.59
2019-04-21T13:46:49.178Z,16.99
2019-04-21T13:47:50.407Z,18.18
2019-04-21T13:48:52.779Z,17.99
2019-04-21T13:49:56.057Z,17.99
2019-04-21T13:51:01.525Z,18.99
2019-04-21T13:52:02.681Z,19.19
2019-04-21T13:53:04.851Z,18.99
2019-04-21T13:54:05.422Z,19.09
2019-04-21T13:55:05.879Z,18.80
2019-04-21T13:56:06.908Z,20.19
2019-04-21T13:57:08.353Z,20.20
2019-04-21T13:58:10.297Z,20.00
2019-04-21T13:59:10.926Z,19.71
2019-04-21T14:00:13.252Z,20.70
2019-04-21T14:01:13.952Z,20.90
2019-04-21T14:02:16.353Z,21.00
2019-04-21T14:03:19.895Z,21.20
2019-04-21T14:04:23.394Z,21.30
2019-04-21T14:05:24.498Z,20.92
2019-04-21T14:06:27.164Z,21.11
2019-04-21T14:07:28.060Z,21.41
2019-04-21T14:08:29.604Z,21.21
2019-04-21T14:09:40.381Z,21.31
2019-04-21T14:10:37.660Z,20.72
2019-04-21T14:11:39.276Z,20.12
2019-04-21T14:12:40.516Z,19.92
2019-04-21T14:13:42.594Z,20.02
2019-04-21T14:14:44.103Z,20.43
2019-04-21T14:15:47.617Z,21.23
2019-04-21T14:16:49.933Z,21.23
2019-04-21T14:17:50.974Z,21.03
2019-04-21T14:18:51.831Z,21.53
2019-04-21T14:19:53.178Z,21.73
2019-04-21T14:20:55.457Z,21.64
2019-04-21T14:21:57.104Z,22.14
2019-04-21T14:23:10.259Z,21.84
2019-04-21T14:24:04.609Z,22.14
2019-04-21T14:25:05.898Z,21.75
2019-04-21T14:26:06.531Z,21.64
2019-04-21T14:27:08.072Z,21.45
2019-04-21T14:28:08.661Z,22.14
2019-04-21T14:29:09.877Z,22.55
2019-04-21T14:30:12.285Z,22.34
2019-04-21T14:31:12.783Z,22.14
2019-04-21T14:32:13.993Z,22.16
2019-04-21T14:33:14.552Z,22.45
2019-04-21T14:34:16.368Z,22.45
2019-04-21T14:35:16.896Z,21.96
2019-04-21T14:36:18.814Z,21.56
2019-04-21T14:37:20.432Z,21.76
2019-04-21T14:38:20.976Z,21.86
2019-04-21T14:39:22.767Z,22.75
2019-04-21T14:40:27.343Z,22.06
2019-04-21T14:41:28.616Z,21.67
2019-04-21T14:42:29.857Z,21.56
2019-04-21T14:43:30.396Z,21.77
2019-04-21T14:44:31.124Z,21.67
2019-04-21T14:45:32.675Z,21.97
2019-04-21T14:46:33.329Z,22.18
2019-04-21T14:47:35.046Z,21.88
2019-04-21T14:48:36.934Z,22.18
2019-04-21T14:49:37.510Z,22.48
2019-04-21T14:50:38.058Z,22.39
2019-04-21T14:51:38.896Z,22.99
2019-04-21T14:52:41.461Z,23.08
2019-04-21T14:53:42.078Z,22.19
2019-04-21T14:54:50.814Z,21.69
2019-04-21T14:55:51.514Z,21.99
2019-04-21T14:56:53.403Z,21.69
2019-04-21T14:57:54.898Z,22.20
2019-04-21T14:58:57.621Z,22.40
2019-04-21T15:00:00.667Z,22.41
2019-04-21T15:01:02.310Z,23.30
2019-04-21T15:02:03.916Z,23.22
2019-04-21T15:03:06.105Z,22.92
2019-04-21T15:04:07.897Z,22.92
2019-04-21T15:05:09.425Z,22.33
2019-04-21T15:06:09.967Z,23.03